Time;durP1;ratioP1;P1;durP2;ratioP2;P2;SDS_P1;SDS_P2;PMS_P1;PMS_P2;Temp;Humidity;BMP_temperature;BMP_pressure;BME280_temperature;BME280_humidity;BME280_pressure;Samples;Min_cycle;Max_cycle;Signal;HPM_P1;HPM_P2
2022/03/17 00:02:14;;;;;;;;;;;22.00;44.30;;;;;;6323354;27;19931;-49
2022/03/17 00:05:16;;;;;;;;;;;22.10;44.30;;;;;;6321275;27;19938;-48
2022/03/17 00:08:17;;;;;;;;;;;22.40;44.50;;;;;;6314094;27;19931;-49
2022/03/17 00:11:19;;;;;;;;;;;22.30;44.40;;;;;;6317679;27;19931;-49
2022/03/17 00:14:20;;;;;;;;;;;22.00;44.10;;;;;;6321681;27;19935;-50
2022/03/17 00:17:22;;;;;;;;;;;21.80;44.20;;;;;;6321114;27;19938;-51
2022/03/17 00:20:24;;;;;;;;;;;21.80;44.20;;;;;;6325493;27;20003;-48
2022/03/17 00:23:25;;;;;;;;;;;21.70;44.00;;;;;;6324527;27;19938;-49
2022/03/17 00:26:26;;;;;;;;;;;21.80;44.20;;;;;;6323723;27;19970;-48
2022/03/17 00:29:28;;;;;;;;;;;21.80;44.20;;;;;;6321413;27;19939;-49
2022/03/17 00:32:30;;;;;;;;;;;21.90;44.20;;;;;;6323571;27;20004;-51
2022/03/17 00:35:42;;;;;;;;;;;21.90;44.20;;;;;;6324044;27;19927;-51
2022/03/17 00:38:43;;;;;;;;;;;21.60;44.00;;;;;;6322830;27;19924;-50
2022/03/17 00:41:45;;;;;;;;;;;22.30;44.40;;;;;;6321443;27;19927;-48
2022/03/17 00:44:46;;;;;;;;;;;21.90;44.20;;;;;;6321243;27;20065;-48
2022/03/17 00:47:48;;;;;;;;;;;21.70;44.10;;;;;;6322525;27;19939;-51
2022/03/17 00:50:50;;;;;;;;;;;22.20;44.30;;;;;;6323361;27;19962;-51
2022/03/17 00:53:51;;;;;;;;;;;21.70;44.10;;;;;;6326278;27;19974;-50
2022/03/17 00:56:52;;;;;;;;;;;21.90;44.20;;;;;;6325331;27;19934;-51
2022/03/17 00:59:54;;;;;;;;;;;21.90;44.30;;;;;;6322799;27;20091;-51
2022/03/17 01:02:56;;;;;;;;;;;21.70;44.20;;;;;;6324637;27;19967;-50
2022/03/17 01:05:59;;;;;;;;;;;21.70;44.00;;;;;;6326747;27;20697;-47
2022/03/17 01:09:00;;;;;;;;;;;22.20;44.20;;;;;;6323457;27;19928;-49
2022/03/17 01:12:02;;;;;;;;;;;22.30;44.40;;;;;;6326781;27;19966;-51
2022/03/17 01:15:04;;;;;;;;;;;21.80;44.10;;;;;;6324386;27;19931;-48
2022/03/17 01:18:06;;;;;;;;;;;21.60;44.00;;;;;;6321990;27;20090;-48
2022/03/17 01:21:08;;;;;;;;;;;21.90;44.20;;;;;;6325853;27;20045;-53
2022/03/17 01:24:10;;;;;;;;;;;21.60;44.10;;;;;;6326474;27;20033;-51
2022/03/17 01:27:11;;;;;;;;;;;22.00;44.30;;;;;;6327291;27;19931;-48
2022/03/17 01:30:13;;;;;;;;;;;21.60;44.10;;;;;;6323786;27;19935;-52
2022/03/17 01:33:14;;;;;;;;;;;22.10;44.30;;;;;;6324538;27;19923;-51
2022/03/17 01:36:17;;;;;;;;;;;22.10;44.40;;;;;;6326898;27;19939;-49
2022/03/17 01:39:18;;;;;;;;;;;22.00;44.30;;;;;;6325585;27;20053;-52
2022/03/17 01:42:19;;;;;;;;;;;22.20;44.30;;;;;;6328508;27;20763;-51
2022/03/17 01:45:21;;;;;;;;;;;22.00;44.20;;;;;;6321201;27;20057;-46
2022/03/17 01:48:23;;;;;;;;;;;21.80;44.10;;;;;;6318617;27;20007;-49
2022/03/17 01:51:25;;;;;;;;;;;21.70;44.00;;;;;;6325415;27;20796;-49
2022/03/17 01:54:26;;;;;;;;;;;21.80;44.00;;;;;;6326500;27;20013;-50
2022/03/17 01:57:39;;;;;;;;;;;22.00;44.30;;;;;;6321704;27;20058;-49
2022/03/17 02:00:42;;;;;;;;;;;21.50;43.90;;;;;;6327869;27;19923;-52
2022/03/17 02:03:47;;;;;;;;;;;21.80;44.30;;;;;;6319897;27;20094;-49
2022/03/17 02:06:49;;;;;;;;;;;21.50;43.90;;;;;;6312649;27;20767;-49
2022/03/17 02:09:50;;;;;;;;;;;22.00;44.20;;;;;;6314710;27;19992;-48
2022/03/17 02:16:08;;;;;;;;;;;21.70;44.00;;;;;;6319652;27;20583;-46
2022/03/17 02:19:09;;;;;;;;;;;21.50;43.70;;;;;;6314281;27;20573;-50
2022/03/17 02:22:12;;;;;;;;;;;21.60;44.00;;;;;;6320972;27;20045;-49
2022/03/17 02:28:34;;;;;;;;;;;21.40;43.70;;;;;;6316487;27;20127;-47
2022/03/17 02:31:37;;;;;;;;;;;21.50;44.00;;;;;;6315579;27;20348;-50
2022/03/17 02:34:38;;;;;;;;;;;21.90;44.00;;;;;;6314701;27;20620;-50
2022/03/17 02:37:40;;;;;;;;;;;22.00;44.30;;;;;;6314153;27;20020;-51
2022/03/17 02:40:44;;;;;;;;;;;22.00;44.70;;;;;;6299075;27;20050;-51
2022/03/17 02:43:45;;;;;;;;;;;22.20;44.20;;;;;;6296478;27;20221;-49
2022/03/17 02:46:46;;;;;;;;;;;21.80;44.10;;;;;;6310853;27;20040;-47
2022/03/17 02:49:48;;;;;;;;;;;21.40;43.90;;;;;;6314737;27;20606;-47
2022/03/17 02:52:50;;;;;;;;;;;21.80;44.10;;;;;;6314690;27;20490;-49
2022/03/17 02:55:52;;;;;;;;;;;21.70;44.00;;;;;;6313198;27;20477;-49
2022/03/17 02:58:53;;;;;;;;;;;21.70;44.00;;;;;;6318913;27;20331;-51
2022/03/17 03:01:54;;;;;;;;;;;21.80;44.20;;;;;;6315027;27;20023;-48
2022/03/17 03:04:56;;;;;;;;;;;21.60;44.00;;;;;;6314056;27;20288;-50
2022/03/17 03:07:57;;;;;;;;;;;21.60;43.80;;;;;;6309685;27;20393;-49
2022/03/17 03:10:59;;;;;;;;;;;21.80;44.10;;;;;;6309674;27;20781;-49
2022/03/17 03:14:01;;;;;;;;;;;21.90;44.00;;;;;;6311596;27;20346;-46
2022/03/17 03:17:02;;;;;;;;;;;21.30;43.80;;;;;;6308416;27;19927;-50
2022/03/17 03:20:05;;;;;;;;;;;21.80;44.00;;;;;;6315110;27;20076;-52
2022/03/17 03:23:06;;;;;;;;;;;21.80;44.00;;;;;;6310123;27;20367;-51
2022/03/17 03:26:08;;;;;;;;;;;21.40;43.80;;;;;;6313564;27;19931;-46
2022/03/17 03:29:13;;;;;;;;;;;21.90;44.00;;;;;;6308435;27;20369;-49
2022/03/17 03:32:14;;;;;;;;;;;21.50;43.80;;;;;;6316457;27;20034;-50
2022/03/17 03:38:28;;;;;;;;;;;21.80;44.00;;;;;;6325222;27;20922;-51
2022/03/17 03:41:30;;;;;;;;;;;21.80;43.80;;;;;;6318623;27;19931;-48
2022/03/17 03:44:32;;;;;;;;;;;21.80;43.80;;;;;;6317682;27;20486;-50
2022/03/17 03:47:33;;;;;;;;;;;21.50;43.70;;;;;;6314620;27;20481;-46
2022/03/17 03:50:37;;;;;;;;;;;21.30;43.60;;;;;;6317157;27;20175;-49
2022/03/17 03:56:55;;;;;;;;;;;21.30;43.60;;;;;;6318011;27;20221;-48
2022/03/17 03:59:57;;;;;;;;;;;21.70;43.90;;;;;;6296369;27;20309;-49
2022/03/17 04:02:58;;;;;;;;;;;22.00;44.10;;;;;;6314143;27;19966;-51
2022/03/17 04:06:00;;;;;;;;;;;21.80;43.90;;;;;;6292218;27;20214;-47
2022/03/17 04:09:03;;;;;;;;;;;21.50;44.30;;;;;;6312975;27;20572;-47
2022/03/17 04:12:06;;;;;;;;;;;21.70;43.70;;;;;;6314685;27;20112;-49
2022/03/17 04:15:08;;;;;;;;;;;21.80;43.80;;;;;;6294414;27;20378;-52
2022/03/17 04:18:09;;;;;;;;;;;21.80;43.90;;;;;;6322888;27;19938;-49
2022/03/17 04:21:11;;;;;;;;;;;21.40;43.80;;;;;;6325732;27;21169;-48
2022/03/17 04:24:12;;;;;;;;;;;21.70;43.90;;;;;;6325609;27;20046;-51
2022/03/17 04:27:14;;;;;;;;;;;21.40;43.70;;;;;;6325551;27;19939;-52
2022/03/17 04:30:15;;;;;;;;;;;22.00;44.00;;;;;;6316922;27;20048;-51
2022/03/17 04:33:17;;;;;;;;;;;21.70;43.80;;;;;;6324841;27;19927;-52
2022/03/17 04:36:18;;;;;;;;;;;21.60;43.70;;;;;;6322780;27;20833;-51
2022/03/17 04:39:20;;;;;;;;;;;21.40;43.70;;;;;;6317801;27;20638;-49
2022/03/17 04:42:22;;;;;;;;;;;21.60;43.80;;;;;;6299482;27;19938;-47
2022/03/17 04:45:23;;;;;;;;;;;21.60;43.70;;;;;;6313976;27;20539;-49
2022/03/17 04:48:25;;;;;;;;;;;21.70;43.80;;;;;;6298041;27;20418;-48
2022/03/17 04:51:26;;;;;;;;;;;21.50;43.60;;;;;;6316372;27;20302;-48
2022/03/17 04:54:28;;;;;;;;;;;21.60;43.70;;;;;;6315746;27;20329;-47
2022/03/17 04:57:30;;;;;;;;;;;21.10;43.50;;;;;;6326458;27;20030;-47
2022/03/17 05:00:31;;;;;;;;;;;21.80;43.80;;;;;;6329293;27;20071;-47
2022/03/17 05:03:33;;;;;;;;;;;21.30;43.70;;;;;;6324550;27;19930;-48
2022/03/17 05:06:34;;;;;;;;;;;21.60;43.70;;;;;;6308746;27;20122;-47
2022/03/17 05:09:35;;;;;;;;;;;21.50;43.70;;;;;;6322774;27;20769;-49
2022/03/17 05:12:39;;;;;;;;;;;22.00;44.00;;;;;;6330157;27;20050;-49
2022/03/17 05:15:41;;;;;;;;;;;21.70;43.80;;;;;;6327371;27;20034;-48
2022/03/17 05:18:42;;;;;;;;;;;21.60;43.70;;;;;;6314204;27;19940;-47
2022/03/17 05:21:44;;;;;;;;;;;21.50;43.70;;;;;;6324118;27;20104;-50
2022/03/17 05:24:46;;;;;;;;;;;21.50;43.60;;;;;;6331537;27;20031;-46
2022/03/17 05:27:48;;;;;;;;;;;21.60;43.70;;;;;;6321039;27;20505;-51
2022/03/17 05:30:50;;;;;;;;;;;21.60;43.70;;;;;;6318416;27;20401;-47
2022/03/17 05:33:51;;;;;;;;;;;21.10;43.50;;;;;;6318040;27;20808;-51
2022/03/17 05:36:53;;;;;;;;;;;21.80;43.80;;;;;;6320095;27;20428;-49
2022/03/17 05:39:54;;;;;;;;;;;21.10;43.50;;;;;;6318154;27;20467;-50
2022/03/17 05:42:57;;;;;;;;;;;21.50;43.60;;;;;;6328585;27;19954;-49
2022/03/17 05:45:58;;;;;;;;;;;21.90;43.90;;;;;;6315982;27;20793;-45
2022/03/17 05:49:00;;;;;;;;;;;21.30;43.60;;;;;;6313302;27;20000;-49
2022/03/17 05:52:02;;;;;;;;;;;21.00;43.40;;;;;;6313580;27;19963;-51
2022/03/17 05:55:03;;;;;;;;;;;21.30;43.50;;;;;;6324810;27;20038;-50
2022/03/17 05:58:05;;;;;;;;;;;21.70;43.80;;;;;;6305770;27;20210;-50
2022/03/17 06:01:07;;;;;;;;;;;21.60;43.70;;;;;;6313687;27;20057;-49
2022/03/17 06:04:08;;;;;;;;;;;21.50;43.70;;;;;;6314090;27;20892;-47
2022/03/17 06:07:10;;;;;;;;;;;21.50;43.70;;;;;;6307778;27;20136;-48
2022/03/17 06:10:13;;;;;;;;;;;21.20;43.30;;;;;;6310616;27;20373;-47
2022/03/17 06:13:15;;;;;;;;;;;22.10;44.40;;;;;;6312905;27;20042;-51
2022/03/17 06:16:17;;;;;;;;;;;21.20;43.50;;;;;;6315363;27;19935;-47
2022/03/17 06:19:19;;;;;;;;;;;21.50;43.70;;;;;;6312284;27;19938;-48
2022/03/17 06:22:20;;;;;;;;;;;21.20;43.50;;;;;;6316075;27;20046;-48
2022/03/17 06:25:24;;;;;;;;;;;21.50;43.60;;;;;;6318281;27;19931;-49
2022/03/17 06:28:26;;;;;;;;;;;21.50;43.60;;;;;;6315984;27;20396;-49
2022/03/17 06:31:28;;;;;;;;;;;21.40;43.60;;;;;;6315154;27;20045;-52
2022/03/17 06:34:29;;;;;;;;;;;21.30;43.50;;;;;;6317127;27;20038;-51
2022/03/17 06:37:30;;;;;;;;;;;21.50;43.70;;;;;;6320817;27;20038;-51
2022/03/17 06:40:32;;;;;;;;;;;20.90;43.40;;;;;;6320622;27;19973;-50
2022/03/17 06:43:34;;;;;;;;;;;21.50;43.60;;;;;;6321915;27;19923;-51
2022/03/17 06:46:35;;;;;;;;;;;22.80;44.20;;;;;;6315495;27;20073;-52
2022/03/17 06:49:37;;;;;;;;;;;21.50;43.50;;;;;;6311465;27;20124;-50
2022/03/17 06:52:38;;;;;;;;;;;21.20;43.30;;;;;;6314182;27;20030;-46
2022/03/17 06:55:40;;;;;;;;;;;21.40;43.30;;;;;;6313594;27;19931;-50
2022/03/17 06:58:42;;;;;;;;;;;21.70;43.20;;;;;;6306066;27;19928;-56
2022/03/17 07:01:43;;;;;;;;;;;21.60;43.20;;;;;;6315254;27;19984;-51
2022/03/17 07:04:45;;;;;;;;;;;21.30;43.10;;;;;;6307019;27;19960;-52
2022/03/17 07:07:47;;;;;;;;;;;21.50;43.00;;;;;;6316565;27;19965;-48
2022/03/17 07:10:48;;;;;;;;;;;21.40;42.90;;;;;;6304959;27;19931;-49
2022/03/17 07:13:50;;;;;;;;;;;21.60;42.90;;;;;;6298379;27;20066;-54
2022/03/17 07:16:51;;;;;;;;;;;21.40;42.70;;;;;;6298592;27;20867;-47
2022/03/17 07:20:00;;;;;;;;;;;21.60;42.80;;;;;;6296402;27;19931;-45
2022/03/17 07:23:01;;;;;;;;;;;21.60;42.70;;;;;;6299457;27;19931;-48
2022/03/17 07:26:03;;;;;;;;;;;21.90;42.90;;;;;;6295620;27;20862;-47
2022/03/17 07:29:05;;;;;;;;;;;22.00;42.80;;;;;;6297243;27;20696;-47
2022/03/17 07:32:10;;;;;;;;;;;21.90;42.70;;;;;;6274027;27;19931;-47
2022/03/17 07:35:12;;;;;;;;;;;21.50;42.60;;;;;;6277226;27;19989;-45
2022/03/17 07:38:14;;;;;;;;;;;21.90;42.70;;;;;;6273411;27;20193;-48
2022/03/17 07:41:16;;;;;;;;;;;21.60;42.60;;;;;;6264315;27;19938;-48
2022/03/17 07:44:18;;;;;;;;;;;21.80;42.50;;;;;;6261774;27;19931;-46
2022/03/17 07:47:43;;;;;;;;;;;21.60;42.40;;;;;;6250618;27;30021;-47
2022/03/17 07:50:44;;;;;;;;;;;22.00;42.40;;;;;;6251628;27;25053;-49
2022/03/17 07:53:46;;;;;;;;;;;22.00;42.40;;;;;;6244491;27;25108;-47
2022/03/17 07:56:47;;;;;;;;;;;21.80;42.20;;;;;;6220925;27;19939;-49
2022/03/17 07:59:50;;;;;;;;;;;21.60;42.20;;;;;;6206347;27;20012;-47
2022/03/17 08:02:51;;;;;;;;;;;22.00;42.30;;;;;;6156010;27;34794;-50
2022/03/17 08:05:53;;;;;;;;;;;21.60;41.90;;;;;;6166945;27;19938;-48
2022/03/17 08:08:55;;;;;;;;;;;22.20;42.10;;;;;;6171072;27;19931;-49
2022/03/17 08:11:57;;;;;;;;;;;21.90;42.10;;;;;;6171513;27;19931;-49
2022/03/17 08:14:59;;;;;;;;;;;21.90;41.90;;;;;;6179972;27;19932;-48
2022/03/17 08:18:00;;;;;;;;;;;22.10;42.00;;;;;;6185527;27;21997;-47
2022/03/17 08:21:02;;;;;;;;;;;22.20;42.00;;;;;;6202525;27;29074;-49
2022/03/17 08:24:04;;;;;;;;;;;22.10;41.80;;;;;;6202644;27;19938;-52
2022/03/17 08:27:05;;;;;;;;;;;22.30;41.80;;;;;;6215174;27;19984;-52
2022/03/17 08:30:08;;;;;;;;;;;22.40;41.90;;;;;;6191153;27;21822;-47
2022/03/17 08:33:09;;;;;;;;;;;21.90;41.50;;;;;;6155332;27;20012;-50
2022/03/17 08:36:15;;;;;;;;;;;22.20;41.80;;;;;;6141928;27;20072;-49
2022/03/17 08:39:16;;;;;;;;;;;22.50;41.80;;;;;;6168572;27;19931;-49
2022/03/17 08:42:18;;;;;;;;;;;22.80;42.00;;;;;;6164694;27;20029;-49
2022/03/17 08:51:56;;;;;;;;;;;22.30;41.50;;;;;;6145280;27;19935;-46
2022/03/17 08:54:58;;;;;;;;;;;22.90;41.80;;;;;;6153917;27;34122;-50
2022/03/17 08:57:59;;;;;;;;;;;22.60;41.60;;;;;;6128729;27;19938;-47
2022/03/17 09:01:01;;;;;;;;;;;22.40;41.30;;;;;;6139523;27;19935;-46
2022/03/17 09:04:03;;;;;;;;;;;22.60;41.50;;;;;;6144209;27;20032;-49
2022/03/17 09:07:05;;;;;;;;;;;22.30;41.30;;;;;;6147954;27;19931;-49
2022/03/17 09:10:06;;;;;;;;;;;22.40;41.40;;;;;;6123119;27;20060;-49
2022/03/17 09:13:08;;;;;;;;;;;22.60;41.50;;;;;;6127714;27;19931;-46
2022/03/17 09:16:10;;;;;;;;;;;22.50;41.70;;;;;;6148835;27;19938;-48
2022/03/17 09:19:12;;;;;;;;;;;22.50;41.30;;;;;;6142312;27;19931;-47
2022/03/17 09:22:13;;;;;;;;;;;23.20;41.70;;;;;;6135569;27;21535;-49
2022/03/17 09:25:17;;;;;;;;;;;22.60;41.30;;;;;;6141132;27;19931;-48
2022/03/17 09:28:19;;;;;;;;;;;22.80;41.40;;;;;;6158225;27;20073;-52
2022/03/17 09:31:22;;;;;;;;;;;22.60;41.20;;;;;;6159571;27;19993;-51
2022/03/17 09:34:23;;;;;;;;;;;22.80;41.30;;;;;;6171041;27;21116;-50
2022/03/17 09:37:25;;;;;;;;;;;22.90;41.40;;;;;;6134274;27;19931;-46
2022/03/17 09:40:26;;;;;;;;;;;22.70;41.30;;;;;;6167952;27;21576;-48
2022/03/17 09:43:31;;;;;;;;;;;22.70;41.20;;;;;;6180243;27;19977;-49
2022/03/17 09:46:35;;;;;;;;;;;22.90;41.50;;;;;;6179161;27;19932;-47
2022/03/17 09:49:37;;;;;;;;;;;23.00;41.30;;;;;;6168604;27;19938;-52
2022/03/17 09:52:39;;;;;;;;;;;23.20;41.40;;;;;;6147141;27;20913;-50
2022/03/17 09:55:43;;;;;;;;;;;23.00;41.20;;;;;;6138867;27;32620;-49
2022/03/17 09:58:47;;;;;;;;;;;22.80;41.20;;;;;;6179450;27;19931;-51
2022/03/17 10:01:50;;;;;;;;;;;22.60;41.00;;;;;;6159003;27;19939;-51
2022/03/17 10:04:52;;;;;;;;;;;22.80;41.00;;;;;;6173619;27;19931;-56
2022/03/17 10:07:53;;;;;;;;;;;22.80;41.00;;;;;;6177796;27;21347;-49
2022/03/17 10:10:55;;;;;;;;;;;23.40;41.30;;;;;;6163159;27;19938;-48
2022/03/17 10:13:57;;;;;;;;;;;23.10;41.20;;;;;;6156607;27;20066;-50
2022/03/17 10:16:59;;;;;;;;;;;22.80;40.90;;;;;;6140769;27;19936;-50
2022/03/17 10:20:16;;;;;;;;;;;22.90;41.00;;;;;;6143374;27;19938;-49
2022/03/17 10:23:23;;;;;;;;;;;22.80;40.90;;;;;;6146875;27;20796;-48
2022/03/17 10:26:34;;;;;;;;;;;22.90;40.80;;;;;;6149948;27;22158;-49
2022/03/17 10:29:35;;;;;;;;;;;23.10;40.90;;;;;;6145615;27;22194;-48
2022/03/17 10:32:53;;;;;;;;;;;23.10;41.00;;;;;;6151136;27;19931;-48
2022/03/17 10:35:54;;;;;;;;;;;22.80;40.70;;;;;;6155973;27;19931;-48
2022/03/17 10:38:55;;;;;;;;;;;23.10;40.90;;;;;;6164393;27;19937;-47
2022/03/17 10:42:08;;;;;;;;;;;23.10;40.90;;;;;;6161382;27;19988;-46
2022/03/17 10:45:10;;;;;;;;;;;22.70;40.70;;;;;;6166687;27;20572;-48
2022/03/17 10:48:13;;;;;;;;;;;23.40;40.90;;;;;;6160409;27;19938;-48
2022/03/17 10:51:29;;;;;;;;;;;23.10;40.70;;;;;;6180089;27;20398;-47
2022/03/17 10:54:32;;;;;;;;;;;23.10;40.70;;;;;;6155194;27;27218;-52
2022/03/17 10:57:34;;;;;;;;;;;23.20;40.80;;;;;;6128175;27;19939;-46
2022/03/17 11:00:44;;;;;;;;;;;23.10;40.60;;;;;;6141561;27;20205;-47
2022/03/17 11:03:46;;;;;;;;;;;22.90;40.60;;;;;;6148603;27;19938;-47
2022/03/17 11:06:48;;;;;;;;;;;23.30;40.70;;;;;;6156759;27;19988;-49
2022/03/17 11:09:49;;;;;;;;;;;23.20;40.70;;;;;;6171568;27;19953;-48
2022/03/17 11:12:51;;;;;;;;;;;22.90;40.50;;;;;;6157351;27;21914;-49
2022/03/17 11:15:56;;;;;;;;;;;23.00;40.60;;;;;;6176018;27;19942;-48
2022/03/17 11:19:03;;;;;;;;;;;23.10;40.50;;;;;;6175103;27;19931;-46
2022/03/17 11:22:05;;;;;;;;;;;23.70;40.70;;;;;;6184026;27;19931;-48
2022/03/17 11:25:17;;;;;;;;;;;23.20;40.60;;;;;;6195726;27;19968;-46
2022/03/17 11:28:20;;;;;;;;;;;23.10;40.50;;;;;;6194545;27;19935;-51
2022/03/17 11:31:27;;;;;;;;;;;23.20;40.50;;;;;;6205338;27;19935;-47
2022/03/17 11:34:46;;;;;;;;;;;23.10;40.20;;;;;;6176085;27;19990;-48
2022/03/17 11:37:48;;;;;;;;;;;23.20;40.50;;;;;;6183801;27;19931;-49
2022/03/17 11:41:06;;;;;;;;;;;23.40;41.20;;;;;;6209045;27;19938;-51
2022/03/17 11:44:08;;;;;;;;;;;23.20;40.40;;;;;;6208550;27;20818;-47
2022/03/17 11:47:10;;;;;;;;;;;23.20;40.40;;;;;;6210261;27;21248;-47
2022/03/17 11:50:27;;;;;;;;;;;23.20;40.30;;;;;;6179015;27;19931;-49
2022/03/17 11:53:37;;;;;;;;;;;23.10;40.30;;;;;;6215265;27;20069;-50
2022/03/17 11:56:42;;;;;;;;;;;23.30;40.30;;;;;;6236217;27;21026;-48
2022/03/17 11:59:52;;;;;;;;;;;23.00;40.20;;;;;;6228110;27;19931;-50
2022/03/17 12:03:03;;;;;;;;;;;23.30;40.30;;;;;;6230643;27;21158;-49
2022/03/17 12:06:05;;;;;;;;;;;23.00;40.10;;;;;;6232454;27;20065;-48
2022/03/17 12:09:10;;;;;;;;;;;23.30;40.20;;;;;;6230453;27;21902;-49
2022/03/17 12:12:22;;;;;;;;;;;23.40;40.20;;;;;;6230580;27;19946;-50
2022/03/17 12:15:35;;;;;;;;;;;23.30;40.20;;;;;;6236912;27;20046;-53
2022/03/17 12:18:47;;;;;;;;;;;23.20;40.10;;;;;;6215465;27;19931;-47
2022/03/17 12:22:04;;;;;;;;;;;23.30;40.20;;;;;;6232041;27;19932;-48
2022/03/17 12:25:17;;;;;;;;;;;23.40;40.10;;;;;;6231027;27;20920;-49
2022/03/17 12:28:21;;;;;;;;;;;23.30;40.00;;;;;;6208284;27;20036;-49
2022/03/17 12:31:22;;;;;;;;;;;23.10;39.90;;;;;;6206633;27;20016;-48
2022/03/17 12:34:24;;;;;;;;;;;23.30;40.10;;;;;;6228169;27;19931;-54
2022/03/17 12:37:26;;;;;;;;;;;23.10;39.90;;;;;;6236471;27;19992;-47
2022/03/17 12:40:31;;;;;;;;;;;23.30;40.00;;;;;;6224854;27;19938;-47
2022/03/17 12:43:34;;;;;;;;;;;23.10;39.90;;;;;;6225559;27;20914;-53
2022/03/17 12:46:38;;;;;;;;;;;23.50;40.40;;;;;;6185781;27;20015;-47
2022/03/17 12:49:41;;;;;;;;;;;23.40;40.00;;;;;;6206638;27;19938;-50
2022/03/17 12:52:43;;;;;;;;;;;23.40;39.90;;;;;;6193912;27;19938;-48
2022/03/17 12:55:45;;;;;;;;;;;23.50;40.20;;;;;;6175689;27;19931;-50
2022/03/17 12:58:48;;;;;;;;;;;23.50;39.90;;;;;;6135362;27;20054;-48
2022/03/17 13:01:49;;;;;;;;;;;24.90;40.50;;;;;;6134991;27;19969;-47
2022/03/17 13:04:52;;;;;;;;;;;23.40;39.80;;;;;;6123216;27;21214;-48
2022/03/17 13:07:54;;;;;;;;;;;23.40;39.70;;;;;;6140970;27;19930;-51
2022/03/17 13:17:30;;;;;;;;;;;23.40;39.70;;;;;;6133375;27;19932;-49
2022/03/17 13:20:32;;;;;;;;;;;23.60;39.70;;;;;;6122918;27;19931;-51
2022/03/17 13:23:35;;;;;;;;;;;23.60;39.70;;;;;;6151336;27;19931;-48
2022/03/17 13:26:36;;;;;;;;;;;23.10;39.50;;;;;;6164793;27;19937;-48
2022/03/17 13:30:02;;;;;;;;;;;23.60;39.70;;;;;;6174157;27;19931;-47
2022/03/17 13:33:04;;;;;;;;;;;23.40;39.50;;;;;;6149650;27;20041;-47
2022/03/17 13:36:06;;;;;;;;;;;23.40;39.50;;;;;;6088856;27;20461;-52
2022/03/17 13:39:09;;;;;;;;;;;23.20;39.40;;;;;;6142984;27;19931;-50
2022/03/17 13:42:12;;;;;;;;;;;23.60;39.60;;;;;;6156551;27;19941;-49
2022/03/17 13:45:28;;;;;;;;;;;23.40;39.40;;;;;;6147797;27;19931;-48
2022/03/17 13:48:31;;;;;;;;;;;23.30;39.40;;;;;;6178027;27;19931;-49
2022/03/17 13:51:34;;;;;;;;;;;23.50;39.50;;;;;;6149836;27;22308;-48
2022/03/17 13:54:39;;;;;;;;;;;23.50;39.50;;;;;;6151948;27;19939;-53
2022/03/17 13:57:41;;;;;;;;;;;23.50;39.30;;;;;;6137907;27;19939;-48
2022/03/17 14:00:44;;;;;;;;;;;23.40;39.30;;;;;;6115602;27;19990;-47
2022/03/17 14:03:47;;;;;;;;;;;23.70;39.50;;;;;;6129439;27;20057;-46
2022/03/17 14:06:49;;;;;;;;;;;23.50;39.30;;;;;;6135505;27;20675;-47
2022/03/17 14:09:50;;;;;;;;;;;23.50;39.30;;;;;;6117287;27;20062;-50
2022/03/17 14:13:01;;;;;;;;;;;23.70;39.40;;;;;;6161861;27;19995;-48
2022/03/17 14:16:03;;;;;;;;;;;23.90;39.50;;;;;;6150662;27;19935;-48
2022/03/17 14:19:05;;;;;;;;;;;23.70;39.40;;;;;;6155571;27;19938;-50
2022/03/17 14:25:19;;;;;;;;;;;23.70;39.30;;;;;;6144765;27;19937;-51
2022/03/17 14:28:21;;;;;;;;;;;23.70;39.30;;;;;;6164887;27;19931;-50
2022/03/17 14:31:23;;;;;;;;;;;23.60;39.20;;;;;;6173711;27;20043;-49
2022/03/17 14:34:26;;;;;;;;;;;23.80;39.20;;;;;;6169215;27;19939;-50
2022/03/17 14:37:29;;;;;;;;;;;23.70;39.30;;;;;;6166748;27;20979;-50
2022/03/17 14:40:31;;;;;;;;;;;23.70;39.10;;;;;;6163895;27;20005;-51
2022/03/17 14:43:32;;;;;;;;;;;23.60;39.10;;;;;;6162443;27;19938;-50
2022/03/17 14:46:34;;;;;;;;;;;23.50;39.00;;;;;;6139225;27;19931;-49
2022/03/17 14:49:36;;;;;;;;;;;23.60;39.10;;;;;;6144572;27;20896;-49
2022/03/17 14:52:37;;;;;;;;;;;23.40;38.90;;;;;;6150102;27;20882;-48
2022/03/17 14:55:39;;;;;;;;;;;23.30;38.90;;;;;;6132018;27;21036;-52
2022/03/17 14:58:41;;;;;;;;;;;23.70;39.10;;;;;;6136226;27;19931;-51
2022/03/17 15:01:43;;;;;;;;;;;23.60;38.90;;;;;;6173586;27;19935;-48
2022/03/17 15:04:46;;;;;;;;;;;23.90;39.80;;;;;;6137528;27;19938;-52
2022/03/17 15:07:48;;;;;;;;;;;23.40;38.80;;;;;;6127333;27;19931;-52
2022/03/17 15:10:49;;;;;;;;;;;23.70;39.00;;;;;;6155582;27;20147;-51
2022/03/17 15:13:51;;;;;;;;;;;23.70;39.00;;;;;;6127455;27;19931;-50
2022/03/17 15:16:53;;;;;;;;;;;23.70;38.90;;;;;;6154155;27;19938;-50
2022/03/17 15:19:56;;;;;;;;;;;23.60;38.80;;;;;;6102823;27;20007;-52
2022/03/17 15:22:57;;;;;;;;;;;23.50;38.70;;;;;;6108176;27;19931;-52
2022/03/17 15:25:59;;;;;;;;;;;23.80;38.90;;;;;;6118733;27;19938;-53
2022/03/17 15:32:17;;;;;;;;;;;23.90;39.00;;;;;;6133456;27;19931;-55
2022/03/17 15:35:19;;;;;;;;;;;23.90;38.90;;;;;;6126839;27;19931;-52
2022/03/17 15:38:20;;;;;;;;;;;23.60;38.70;;;;;;6124417;27;19938;-52
2022/03/17 15:41:21;;;;;;;;;;;24.00;38.90;;;;;;6138347;27;19931;-52
2022/03/17 15:44:23;;;;;;;;;;;23.90;38.90;;;;;;6142698;27;20060;-53
2022/03/17 15:47:25;;;;;;;;;;;23.90;39.50;;;;;;6144151;27;19932;-52
2022/03/17 15:50:27;;;;;;;;;;;23.80;38.70;;;;;;6160520;27;19931;-50
2022/03/17 15:53:28;;;;;;;;;;;23.90;39.00;;;;;;6153542;27;20053;-52
2022/03/17 15:56:30;;;;;;;;;;;24.00;38.80;;;;;;6132682;27;19931;-52
2022/03/17 15:59:32;;;;;;;;;;;23.80;38.70;;;;;;6119466;27;20026;-53
2022/03/17 16:02:34;;;;;;;;;;;24.00;38.80;;;;;;6143743;27;19938;-51
2022/03/17 16:05:38;;;;;;;;;;;23.90;38.70;;;;;;6175654;27;19939;-54
2022/03/17 16:08:39;;;;;;;;;;;23.70;38.70;;;;;;6143813;27;19931;-54
2022/03/17 16:14:56;;;;;;;;;;;24.10;38.80;;;;;;6182653;27;19931;-51
2022/03/17 16:18:00;;;;;;;;;;;24.00;38.70;;;;;;6132378;27;20061;-54
2022/03/17 16:21:01;;;;;;;;;;;23.80;38.50;;;;;;6151471;27;20043;-50
2022/03/17 16:24:05;;;;;;;;;;;23.80;38.60;;;;;;6165019;27;20045;-51
2022/03/17 16:27:06;;;;;;;;;;;23.80;38.50;;;;;;6187774;27;19968;-53
2022/03/17 16:30:08;;;;;;;;;;;23.60;38.40;;;;;;6167009;27;19931;-54
2022/03/17 16:33:10;;;;;;;;;;;24.00;38.70;;;;;;6143221;27;19932;-52
2022/03/17 16:36:12;;;;;;;;;;;23.70;38.40;;;;;;6156867;27;19931;-53
2022/03/17 16:39:14;;;;;;;;;;;24.00;38.60;;;;;;6149018;27;19932;-52
2022/03/17 16:42:16;;;;;;;;;;;24.20;38.70;;;;;;6141952;27;21265;-53
2022/03/17 16:45:17;;;;;;;;;;;23.90;38.50;;;;;;6188066;27;21305;-51
2022/03/17 16:48:19;;;;;;;;;;;23.90;38.50;;;;;;6182949;27;21083;-52
2022/03/17 16:51:21;;;;;;;;;;;24.20;38.60;;;;;;6197999;27;20073;-50
2022/03/17 16:54:23;;;;;;;;;;;24.10;38.70;;;;;;6188922;27;19982;-50
2022/03/17 16:57:24;;;;;;;;;;;24.00;38.50;;;;;;6218911;27;19931;-54
2022/03/17 17:00:26;;;;;;;;;;;23.70;38.40;;;;;;6217258;27;19937;-50
2022/03/17 17:03:35;;;;;;;;;;;24.00;38.50;;;;;;6188084;27;19933;-52
2022/03/17 17:06:36;;;;;;;;;;;24.00;38.50;;;;;;6219131;27;19934;-53
2022/03/17 17:09:38;;;;;;;;;;;24.00;38.60;;;;;;6226440;27;19935;-50
2022/03/17 17:12:41;;;;;;;;;;;23.80;38.30;;;;;;6228853;27;21104;-52
2022/03/17 17:15:43;;;;;;;;;;;24.00;38.40;;;;;;6235378;27;19931;-53
2022/03/17 17:18:46;;;;;;;;;;;24.00;38.40;;;;;;6253478;27;19927;-54
2022/03/17 17:21:47;;;;;;;;;;;24.00;38.40;;;;;;6215586;27;19931;-53
2022/03/17 17:31:19;;;;;;;;;;;24.00;38.40;;;;;;6246136;27;20053;-49
2022/03/17 17:34:21;;;;;;;;;;;24.10;38.40;;;;;;6237790;27;19935;-53
2022/03/17 17:37:23;;;;;;;;;;;23.90;38.30;;;;;;6258209;27;20267;-54
2022/03/17 17:40:24;;;;;;;;;;;24.00;38.30;;;;;;6259182;27;20824;-51
2022/03/17 17:43:27;;;;;;;;;;;24.00;38.30;;;;;;6258219;27;19966;-54
2022/03/17 17:46:29;;;;;;;;;;;24.10;38.30;;;;;;6265360;27;21138;-52
2022/03/17 17:49:31;;;;;;;;;;;24.10;38.30;;;;;;6273336;27;19942;-49
2022/03/17 17:52:32;;;;;;;;;;;24.10;38.30;;;;;;6259458;27;20085;-55
2022/03/17 17:55:34;;;;;;;;;;;24.00;38.30;;;;;;6269833;27;19932;-52
2022/03/17 17:58:36;;;;;;;;;;;24.10;38.40;;;;;;6270215;27;20049;-49
2022/03/17 18:01:39;;;;;;;;;;;24.30;38.50;;;;;;6268728;27;21714;-52
2022/03/17 18:04:41;;;;;;;;;;;23.90;38.20;;;;;;6255659;27;20391;-51
2022/03/17 18:07:43;;;;;;;;;;;24.00;38.30;;;;;;6262817;27;20240;-49
2022/03/17 18:10:44;;;;;;;;;;;23.90;38.20;;;;;;6261485;27;20640;-49
2022/03/17 18:13:46;;;;;;;;;;;24.00;38.30;;;;;;6251577;27;19986;-50
2022/03/17 18:16:47;;;;;;;;;;;23.70;38.10;;;;;;6273752;27;19931;-48
2022/03/17 18:19:50;;;;;;;;;;;23.80;38.20;;;;;;6266599;27;20397;-53
2022/03/17 18:22:52;;;;;;;;;;;24.00;38.30;;;;;;6270350;27;20269;-49
2022/03/17 18:25:55;;;;;;;;;;;24.20;38.40;;;;;;6275748;27;20017;-50